sensor_id;sensor_type;location;lat;lon;timestamp;temperature;humidity
22065;DHT22;11197;53.110;8.468;2023-09-19T00:02:19;17.00;99.90
22065;DHT22;11197;53.110;8.468;2023-09-19T00:04:45;17.00;99.90
22065;DHT22;11197;53.110;8.468;2023-09-19T00:07:11;17.00;99.90
22065;DHT22;11197;53.110;8.468;2023-09-19T00:09:36;17.00;99.90
22065;DHT22;11197;53.110;8.468;2023-09-19T00:12:05;17.00;99.90
22065;DHT22;11197;53.110;8.468;2023-09-19T00:14:30;17.00;99.90
22065;DHT22;11197;53.110;8.468;2023-09-19T00:17:00;17.00;99.90
22065;DHT22;11197;53.110;8.468;2023-09-19T00:19:26;17.00;99.90
22065;DHT22;11197;53.110;8.468;2023-09-19T00:21:52;17.00;99.90
22065;DHT22;11197;53.110;8.468;2023-09-19T00:24:18;17.00;99.90
22065;DHT22;11197;53.110;8.468;2023-09-19T00:26:44;17.00;99.90
22065;DHT22;11197;53.110;8.468;2023-09-19T00:29:13;17.00;99.90
22065;DHT22;11197;53.110;8.468;2023-09-19T00:31:44;17.00;99.90
22065;DHT22;11197;53.110;8.468;2023-09-19T00:34:10;17.00;99.90
22065;DHT22;11197;53.110;8.468;2023-09-19T00:36:39;17.00;99.90
22065;DHT22;11197;53.110;8.468;2023-09-19T00:39:05;17.00;99.90
22065;DHT22;11197;53.110;8.468;2023-09-19T00:41:34;17.00;99.90
22065;DHT22;11197;53.110;8.468;2023-09-19T00:44:03;16.90;99.90
22065;DHT22;11197;53.110;8.468;2023-09-19T00:46:39;16.90;99.90
22065;DHT22;11197;53.110;8.468;2023-09-19T00:49:07;16.90;99.90
22065;DHT22;11197;53.110;8.468;2023-09-19T00:51:34;16.80;99.90
22065;DHT22;11197;53.110;8.468;2023-09-19T00:54:02;16.80;99.90
22065;DHT22;11197;53.110;8.468;2023-09-19T00:56:29;16.80;99.90
22065;DHT22;11197;53.110;8.468;2023-09-19T00:58:55;16.80;99.90
22065;DHT22;11197;53.110;8.468;2023-09-19T01:01:21;16.80;99.90
22065;DHT22;11197;53.110;8.468;2023-09-19T01:03:47;16.80;99.90
22065;DHT22;11197;53.110;8.468;2023-09-19T01:06:13;16.70;99.90
22065;DHT22;11197;53.110;8.468;2023-09-19T01:08:38;16.70;99.90
22065;DHT22;11197;53.110;8.468;2023-09-19T01:11:42;16.70;99.90
22065;DHT22;11197;53.110;8.468;2023-09-19T01:14:22;16.70;99.90
22065;DHT22;11197;53.110;8.468;2023-09-19T01:17:03;16.70;99.90
22065;DHT22;11197;53.110;8.468;2023-09-19T01:22:29;16.70;99.90
22065;DHT22;11197;53.110;8.468;2023-09-19T01:27:53;16.70;99.90
22065;DHT22;11197;53.110;8.468;2023-09-19T01:30:27;16.70;99.90
22065;DHT22;11197;53.110;8.468;2023-09-19T01:32:59;16.60;99.90
22065;DHT22;11197;53.110;8.468;2023-09-19T01:35:25;16.60;99.90
22065;DHT22;11197;53.110;8.468;2023-09-19T01:37:51;16.50;99.90
22065;DHT22;11197;53.110;8.468;2023-09-19T01:40:20;16.50;99.90
22065;DHT22;11197;53.110;8.468;2023-09-19T01:43:08;16.50;99.90
22065;DHT22;11197;53.110;8.468;2023-09-19T01:45:53;16.50;99.90
22065;DHT22;11197;53.110;8.468;2023-09-19T01:51:15;16.40;99.90
22065;DHT22;11197;53.110;8.468;2023-09-19T01:56:42;16.40;99.90
22065;DHT22;11197;53.110;8.468;2023-09-19T01:59:23;16.30;99.90
22065;DHT22;11197;53.110;8.468;2023-09-19T02:01:52;16.30;99.90
22065;DHT22;11197;53.110;8.468;2023-09-19T02:04:18;16.30;99.90
22065;DHT22;11197;53.110;8.468;2023-09-19T02:06:44;16.20;99.90
22065;DHT22;11197;53.110;8.468;2023-09-19T02:09:14;16.20;99.90
22065;DHT22;11197;53.110;8.468;2023-09-19T02:11:40;16.00;99.90
22065;DHT22;11197;53.110;8.468;2023-09-19T02:14:07;15.90;99.90
22065;DHT22;11197;53.110;8.468;2023-09-19T02:16:34;15.90;99.90
22065;DHT22;11197;53.110;8.468;2023-09-19T02:19:00;15.90;99.90
22065;DHT22;11197;53.110;8.468;2023-09-19T02:21:30;15.90;99.90
22065;DHT22;11197;53.110;8.468;2023-09-19T02:23:57;15.80;99.90
22065;DHT22;11197;53.110;8.468;2023-09-19T02:26:24;15.80;99.90
22065;DHT22;11197;53.110;8.468;2023-09-19T02:28:50;15.80;99.90
22065;DHT22;11197;53.110;8.468;2023-09-19T02:31:16;15.80;99.90
22065;DHT22;11197;53.110;8.468;2023-09-19T02:33:42;15.80;99.90
22065;DHT22;11197;53.110;8.468;2023-09-19T02:36:09;15.80;99.90
22065;DHT22;11197;53.110;8.468;2023-09-19T02:38:35;15.70;99.90
22065;DHT22;11197;53.110;8.468;2023-09-19T02:41:02;15.70;99.90
22065;DHT22;11197;53.110;8.468;2023-09-19T02:43:28;15.70;99.90
22065;DHT22;11197;53.110;8.468;2023-09-19T02:45:54;15.70;99.90
22065;DHT22;11197;53.110;8.468;2023-09-19T02:48:20;15.60;99.90
22065;DHT22;11197;53.110;8.468;2023-09-19T02:50:49;15.60;99.90
22065;DHT22;11197;53.110;8.468;2023-09-19T02:53:15;15.50;99.90
22065;DHT22;11197;53.110;8.468;2023-09-19T02:55:41;15.60;99.90
22065;DHT22;11197;53.110;8.468;2023-09-19T02:58:07;15.50;99.90
22065;DHT22;11197;53.110;8.468;2023-09-19T03:00:40;15.60;99.90
22065;DHT22;11197;53.110;8.468;2023-09-19T03:03:08;15.50;99.90
22065;DHT22;11197;53.110;8.468;2023-09-19T03:05:34;15.50;99.90
22065;DHT22;11197;53.110;8.468;2023-09-19T03:08:01;15.40;99.90
22065;DHT22;11197;53.110;8.468;2023-09-19T03:10:27;15.30;99.90
22065;DHT22;11197;53.110;8.468;2023-09-19T03:12:54;15.30;99.90
22065;DHT22;11197;53.110;8.468;2023-09-19T03:15:20;15.20;99.90
22065;DHT22;11197;53.110;8.468;2023-09-19T03:17:49;15.20;99.90
22065;DHT22;11197;53.110;8.468;2023-09-19T03:20:19;15.30;99.90
22065;DHT22;11197;53.110;8.468;2023-09-19T03:22:47;15.20;99.90
22065;DHT22;11197;53.110;8.468;2023-09-19T03:30:23;15.30;99.90
22065;DHT22;11197;53.110;8.468;2023-09-19T03:32:50;15.40;99.90
22065;DHT22;11197;53.110;8.468;2023-09-19T03:35:17;15.40;99.90
22065;DHT22;11197;53.110;8.468;2023-09-19T03:37:44;15.30;99.90
22065;DHT22;11197;53.110;8.468;2023-09-19T03:42:40;15.20;99.90
22065;DHT22;11197;53.110;8.468;2023-09-19T03:45:08;15.20;99.90
22065;DHT22;11197;53.110;8.468;2023-09-19T03:47:41;15.10;99.90
22065;DHT22;11197;53.110;8.468;2023-09-19T03:50:08;15.10;99.90
22065;DHT22;11197;53.110;8.468;2023-09-19T03:52:36;15.10;99.90
22065;DHT22;11197;53.110;8.468;2023-09-19T03:55:02;15.10;99.90
22065;DHT22;11197;53.110;8.468;2023-09-19T03:57:30;15.10;99.90
22065;DHT22;11197;53.110;8.468;2023-09-19T03:59:55;15.10;99.90
22065;DHT22;11197;53.110;8.468;2023-09-19T04:07:37;15.00;99.90
22065;DHT22;11197;53.110;8.468;2023-09-19T04:10:03;15.00;99.90
22065;DHT22;11197;53.110;8.468;2023-09-19T04:12:29;15.00;99.90
22065;DHT22;11197;53.110;8.468;2023-09-19T04:14:55;15.00;99.90
22065;DHT22;11197;53.110;8.468;2023-09-19T04:17:20;14.90;99.90
22065;DHT22;11197;53.110;8.468;2023-09-19T04:19:46;14.90;99.90
22065;DHT22;11197;53.110;8.468;2023-09-19T04:22:12;14.90;99.90
22065;DHT22;11197;53.110;8.468;2023-09-19T04:24:38;14.90;99.90
22065;DHT22;11197;53.110;8.468;2023-09-19T04:27:05;14.90;99.90
22065;DHT22;11197;53.110;8.468;2023-09-19T04:29:30;14.90;99.90
22065;DHT22;11197;53.110;8.468;2023-09-19T04:34:33;14.90;99.90
22065;DHT22;11197;53.110;8.468;2023-09-19T04:37:00;14.90;99.90
22065;DHT22;11197;53.110;8.468;2023-09-19T04:39:26;14.90;99.90
22065;DHT22;11197;53.110;8.468;2023-09-19T04:41:53;14.90;99.90
22065;DHT22;11197;53.110;8.468;2023-09-19T04:44:19;14.90;99.90
22065;DHT22;11197;53.110;8.468;2023-09-19T04:46:45;14.90;99.90
22065;DHT22;11197;53.110;8.468;2023-09-19T04:49:12;14.90;99.90
22065;DHT22;11197;53.110;8.468;2023-09-19T04:51:38;14.90;99.90
22065;DHT22;11197;53.110;8.468;2023-09-19T04:54:05;14.80;99.90
22065;DHT22;11197;53.110;8.468;2023-09-19T04:56:31;14.80;99.90
22065;DHT22;11197;53.110;8.468;2023-09-19T04:58:58;14.80;99.90
22065;DHT22;11197;53.110;8.468;2023-09-19T05:01:24;14.80;99.90
22065;DHT22;11197;53.110;8.468;2023-09-19T05:03:50;14.80;99.90
22065;DHT22;11197;53.110;8.468;2023-09-19T05:06:21;14.80;99.90
22065;DHT22;11197;53.110;8.468;2023-09-19T05:08:48;14.80;99.90
22065;DHT22;11197;53.110;8.468;2023-09-19T05:11:18;14.70;99.90
22065;DHT22;11197;53.110;8.468;2023-09-19T05:13:45;14.70;99.90
22065;DHT22;11197;53.110;8.468;2023-09-19T05:16:10;14.80;99.90
22065;DHT22;11197;53.110;8.468;2023-09-19T05:18:36;14.80;99.90
22065;DHT22;11197;53.110;8.468;2023-09-19T05:21:02;14.80;99.90
22065;DHT22;11197;53.110;8.468;2023-09-19T05:23:28;14.80;99.90
22065;DHT22;11197;53.110;8.468;2023-09-19T05:25:54;14.70;99.90
22065;DHT22;11197;53.110;8.468;2023-09-19T05:28:22;14.80;99.90
22065;DHT22;11197;53.110;8.468;2023-09-19T05:30:49;14.80;99.90
22065;DHT22;11197;53.110;8.468;2023-09-19T05:33:15;14.80;99.90
22065;DHT22;11197;53.110;8.468;2023-09-19T05:35:41;14.70;99.90
22065;DHT22;11197;53.110;8.468;2023-09-19T05:38:07;14.70;99.90
22065;DHT22;11197;53.110;8.468;2023-09-19T05:40:38;14.70;99.90
22065;DHT22;11197;53.110;8.468;2023-09-19T05:43:08;14.80;99.90
22065;DHT22;11197;53.110;8.468;2023-09-19T05:45:34;14.80;99.90
22065;DHT22;11197;53.110;8.468;2023-09-19T05:48:12;14.80;99.90
22065;DHT22;11197;53.110;8.468;2023-09-19T05:50:41;14.80;99.90
22065;DHT22;11197;53.110;8.468;2023-09-19T05:53:08;14.80;99.90
22065;DHT22;11197;53.110;8.468;2023-09-19T05:55:37;14.80;99.90
22065;DHT22;11197;53.110;8.468;2023-09-19T05:58:03;14.80;99.90
22065;DHT22;11197;53.110;8.468;2023-09-19T06:00:29;14.90;99.90
22065;DHT22;11197;53.110;8.468;2023-09-19T06:02:58;14.90;99.90
22065;DHT22;11197;53.110;8.468;2023-09-19T06:05:25;14.90;99.90
22065;DHT22;11197;53.110;8.468;2023-09-19T06:07:55;14.90;99.90
22065;DHT22;11197;53.110;8.468;2023-09-19T06:10:24;14.90;99.90
22065;DHT22;11197;53.110;8.468;2023-09-19T06:12:50;14.90;99.90
22065;DHT22;11197;53.110;8.468;2023-09-19T06:15:17;14.90;99.90
22065;DHT22;11197;53.110;8.468;2023-09-19T06:17:49;14.90;99.90
22065;DHT22;11197;53.110;8.468;2023-09-19T06:20:16;14.90;99.90
22065;DHT22;11197;53.110;8.468;2023-09-19T06:22:43;15.00;99.90
22065;DHT22;11197;53.110;8.468;2023-09-19T06:25:11;15.00;99.90
22065;DHT22;11197;53.110;8.468;2023-09-19T06:27:40;15.10;99.90
22065;DHT22;11197;53.110;8.468;2023-09-19T06:30:10;15.00;99.90
22065;DHT22;11197;53.110;8.468;2023-09-19T06:32:40;15.10;99.90
22065;DHT22;11197;53.110;8.468;2023-09-19T06:35:13;15.00;99.90
22065;DHT22;11197;53.110;8.468;2023-09-19T06:37:40;15.10;99.90
22065;DHT22;11197;53.110;8.468;2023-09-19T06:42:47;15.10;99.90
22065;DHT22;11197;53.110;8.468;2023-09-19T06:45:15;15.10;99.90
22065;DHT22;11197;53.110;8.468;2023-09-19T06:47:48;15.10;99.90
22065;DHT22;11197;53.110;8.468;2023-09-19T06:50:18;15.10;99.90
22065;DHT22;11197;53.110;8.468;2023-09-19T06:52:46;15.10;99.90
22065;DHT22;11197;53.110;8.468;2023-09-19T06:55:13;15.20;99.90
22065;DHT22;11197;53.110;8.468;2023-09-19T06:57:42;15.20;99.90
22065;DHT22;11197;53.110;8.468;2023-09-19T07:00:10;15.20;99.90
22065;DHT22;11197;53.110;8.468;2023-09-19T07:05:33;15.30;99.90
22065;DHT22;11197;53.110;8.468;2023-09-19T07:08:01;15.20;99.90
22065;DHT22;11197;53.110;8.468;2023-09-19T07:10:27;15.30;99.90
22065;DHT22;11197;53.110;8.468;2023-09-19T07:15:23;15.30;99.90
22065;DHT22;11197;53.110;8.468;2023-09-19T07:17:51;15.30;99.90
22065;DHT22;11197;53.110;8.468;2023-09-19T07:20:18;15.40;99.90
22065;DHT22;11197;53.110;8.468;2023-09-19T07:22:44;15.50;99.90
22065;DHT22;11197;53.110;8.468;2023-09-19T07:25:10;15.50;99.90
22065;DHT22;11197;53.110;8.468;2023-09-19T07:27:35;15.50;99.90
22065;DHT22;11197;53.110;8.468;2023-09-19T07:30:01;15.50;99.90
22065;DHT22;11197;53.110;8.468;2023-09-19T07:32:27;15.60;99.90
22065;DHT22;11197;53.110;8.468;2023-09-19T07:34:53;15.60;99.90
22065;DHT22;11197;53.110;8.468;2023-09-19T07:37:20;15.60;99.90
22065;DHT22;11197;53.110;8.468;2023-09-19T07:39:46;15.70;99.90
22065;DHT22;11197;53.110;8.468;2023-09-19T07:42:12;15.70;99.90
22065;DHT22;11197;53.110;8.468;2023-09-19T07:44:43;15.70;99.90
22065;DHT22;11197;53.110;8.468;2023-09-19T07:47:13;15.70;99.90
22065;DHT22;11197;53.110;8.468;2023-09-19T07:49:39;15.80;99.90
22065;DHT22;11197;53.110;8.468;2023-09-19T07:52:04;15.80;99.90
22065;DHT22;11197;53.110;8.468;2023-09-19T07:54:30;15.80;99.90
22065;DHT22;11197;53.110;8.468;2023-09-19T07:57:01;15.90;99.90
22065;DHT22;11197;53.110;8.468;2023-09-19T07:59:27;16.00;99.90
22065;DHT22;11197;53.110;8.468;2023-09-19T08:01:53;16.00;99.90
22065;DHT22;11197;53.110;8.468;2023-09-19T08:04:19;16.00;99.90
22065;DHT22;11197;53.110;8.468;2023-09-19T08:06:45;16.10;99.90
22065;DHT22;11197;53.110;8.468;2023-09-19T08:09:11;16.10;99.90
22065;DHT22;11197;53.110;8.468;2023-09-19T08:11:41;16.20;99.90
22065;DHT22;11197;53.110;8.468;2023-09-19T08:14:08;16.20;99.90
22065;DHT22;11197;53.110;8.468;2023-09-19T08:16:34;16.20;99.90
22065;DHT22;11197;53.110;8.468;2023-09-19T08:19:00;16.30;99.90
22065;DHT22;11197;53.110;8.468;2023-09-19T08:21:25;16.30;99.90
22065;DHT22;11197;53.110;8.468;2023-09-19T08:23:54;16.30;99.90
22065;DHT22;11197;53.110;8.468;2023-09-19T08:26:20;16.30;99.90
22065;DHT22;11197;53.110;8.468;2023-09-19T08:28:47;16.30;99.90
22065;DHT22;11197;53.110;8.468;2023-09-19T08:31:13;16.40;99.90
22065;DHT22;11197;53.110;8.468;2023-09-19T08:33:39;16.40;99.90
22065;DHT22;11197;53.110;8.468;2023-09-19T08:36:06;16.30;99.90
22065;DHT22;11197;53.110;8.468;2023-09-19T08:38:34;16.40;99.90
22065;DHT22;11197;53.110;8.468;2023-09-19T08:41:07;16.40;99.90
22065;DHT22;11197;53.110;8.468;2023-09-19T08:43:34;16.40;99.90
22065;DHT22;11197;53.110;8.468;2023-09-19T08:46:11;16.50;99.90
22065;DHT22;11197;53.110;8.468;2023-09-19T08:48:51;16.50;99.90
22065;DHT22;11197;53.110;8.468;2023-09-19T08:51:51;16.50;99.90
22065;DHT22;11197;53.110;8.468;2023-09-19T08:54:25;16.60;99.90
22065;DHT22;11197;53.110;8.468;2023-09-19T08:56:56;16.60;99.90
22065;DHT22;11197;53.110;8.468;2023-09-19T08:59:25;16.60;99.90
22065;DHT22;11197;53.110;8.468;2023-09-19T09:01:54;16.70;99.90
22065;DHT22;11197;53.110;8.468;2023-09-19T09:04:22;16.70;99.90
22065;DHT22;11197;53.110;8.468;2023-09-19T09:06:50;16.70;99.90
22065;DHT22;11197;53.110;8.468;2023-09-19T09:09:19;16.70;99.90
22065;DHT22;11197;53.110;8.468;2023-09-19T09:11:45;16.70;99.90
22065;DHT22;11197;53.110;8.468;2023-09-19T09:14:13;16.80;99.90
22065;DHT22;11197;53.110;8.468;2023-09-19T09:16:39;16.80;99.90
22065;DHT22;11197;53.110;8.468;2023-09-19T09:19:05;16.90;99.90
22065;DHT22;11197;53.110;8.468;2023-09-19T09:21:31;16.90;99.90
22065;DHT22;11197;53.110;8.468;2023-09-19T09:24:29;17.00;99.90
22065;DHT22;11197;53.110;8.468;2023-09-19T09:26:57;17.00;99.90
22065;DHT22;11197;53.110;8.468;2023-09-19T09:29:50;17.20;99.90
22065;DHT22;11197;53.110;8.468;2023-09-19T09:34:54;17.20;99.90
22065;DHT22;11197;53.110;8.468;2023-09-19T09:37:20;17.20;99.90
22065;DHT22;11197;53.110;8.468;2023-09-19T09:42:33;17.30;99.90
22065;DHT22;11197;53.110;8.468;2023-09-19T09:45:17;17.40;99.90
22065;DHT22;11197;53.110;8.468;2023-09-19T09:47:48;17.50;99.90
22065;DHT22;11197;53.110;8.468;2023-09-19T09:50:29;17.50;99.90
22065;DHT22;11197;53.110;8.468;2023-09-19T09:53:03;17.50;99.90
22065;DHT22;11197;53.110;8.468;2023-09-19T09:56:00;17.40;99.90
22065;DHT22;11197;53.110;8.468;2023-09-19T09:58:28;17.50;99.90
22065;DHT22;11197;53.110;8.468;2023-09-19T10:01:01;17.40;99.90
22065;DHT22;11197;53.110;8.468;2023-09-19T10:03:41;17.40;99.90
22065;DHT22;11197;53.110;8.468;2023-09-19T10:06:14;17.40;99.90
22065;DHT22;11197;53.110;8.468;2023-09-19T10:09:05;17.50;99.90
22065;DHT22;11197;53.110;8.468;2023-09-19T10:11:42;17.50;99.90
22065;DHT22;11197;53.110;8.468;2023-09-19T10:14:13;17.50;99.90
22065;DHT22;11197;53.110;8.468;2023-09-19T10:16:45;17.50;99.90
22065;DHT22;11197;53.110;8.468;2023-09-19T10:19:28;17.50;99.90
22065;DHT22;11197;53.110;8.468;2023-09-19T10:21:55;17.40;99.90
22065;DHT22;11197;53.110;8.468;2023-09-19T10:24:22;17.50;99.90
22065;DHT22;11197;53.110;8.468;2023-09-19T10:26:53;17.50;99.90
22065;DHT22;11197;53.110;8.468;2023-09-19T10:29:21;17.50;99.90
22065;DHT22;11197;53.110;8.468;2023-09-19T10:31:47;17.60;99.90
22065;DHT22;11197;53.110;8.468;2023-09-19T10:34:17;17.60;99.90
22065;DHT22;11197;53.110;8.468;2023-09-19T10:36:46;17.60;99.90
22065;DHT22;11197;53.110;8.468;2023-09-19T10:39:16;17.60;99.90
22065;DHT22;11197;53.110;8.468;2023-09-19T10:41:53;17.70;99.90
22065;DHT22;11197;53.110;8.468;2023-09-19T10:44:25;17.80;99.90
22065;DHT22;11197;53.110;8.468;2023-09-19T10:46:52;17.80;99.90
22065;DHT22;11197;53.110;8.468;2023-09-19T10:49:20;17.80;99.90
22065;DHT22;11197;53.110;8.468;2023-09-19T10:51:47;17.80;99.90
22065;DHT22;11197;53.110;8.468;2023-09-19T10:54:20;17.80;99.90
22065;DHT22;11197;53.110;8.468;2023-09-19T10:56:49;17.80;99.90
22065;DHT22;11197;53.110;8.468;2023-09-19T10:59:20;17.90;99.90
22065;DHT22;11197;53.110;8.468;2023-09-19T11:07:11;18.00;99.90
22065;DHT22;11197;53.110;8.468;2023-09-19T11:12:12;18.10;99.90
22065;DHT22;11197;53.110;8.468;2023-09-19T11:14:40;18.00;99.90
22065;DHT22;11197;53.110;8.468;2023-09-19T11:33:29;18.20;99.90
22065;DHT22;11197;53.110;8.468;2023-09-19T11:36:11;18.20;99.90
22065;DHT22;11197;53.110;8.468;2023-09-19T11:39:01;18.20;99.90
22065;DHT22;11197;53.110;8.468;2023-09-19T11:41:41;18.20;99.90
22065;DHT22;11197;53.110;8.468;2023-09-19T11:49:19;18.30;99.90
22065;DHT22;11197;53.110;8.468;2023-09-19T11:51:52;18.30;99.90
22065;DHT22;11197;53.110;8.468;2023-09-19T11:54:18;18.30;99.90
22065;DHT22;11197;53.110;8.468;2023-09-19T11:56:51;18.30;99.90
22065;DHT22;11197;53.110;8.468;2023-09-19T11:59:30;18.40;99.90
22065;DHT22;11197;53.110;8.468;2023-09-19T12:01:57;18.40;99.90
22065;DHT22;11197;53.110;8.468;2023-09-19T12:04:43;18.40;99.90
22065;DHT22;11197;53.110;8.468;2023-09-19T12:07:15;18.50;99.90
22065;DHT22;11197;53.110;8.468;2023-09-19T12:09:41;18.60;99.90
22065;DHT22;11197;53.110;8.468;2023-09-19T12:12:26;18.60;99.90
22065;DHT22;11197;53.110;8.468;2023-09-19T12:14:54;18.60;99.90
22065;DHT22;11197;53.110;8.468;2023-09-19T12:17:20;18.60;99.90
22065;DHT22;11197;53.110;8.468;2023-09-19T12:19:54;18.60;99.90
22065;DHT22;11197;53.110;8.468;2023-09-19T12:22:21;18.60;99.90
22065;DHT22;11197;53.110;8.468;2023-09-19T12:24:47;18.60;99.90
22065;DHT22;11197;53.110;8.468;2023-09-19T12:27:13;18.60;99.90
22065;DHT22;11197;53.110;8.468;2023-09-19T12:29:50;18.70;99.90
22065;DHT22;11197;53.110;8.468;2023-09-19T12:32:34;18.70;99.90
22065;DHT22;11197;53.110;8.468;2023-09-19T12:35:01;18.70;99.90
22065;DHT22;11197;53.110;8.468;2023-09-19T12:37:33;18.80;99.90
22065;DHT22;11197;53.110;8.468;2023-09-19T12:40:06;18.80;99.90
22065;DHT22;11197;53.110;8.468;2023-09-19T12:42:52;18.80;99.90
22065;DHT22;11197;53.110;8.468;2023-09-19T12:45:21;18.90;99.90
22065;DHT22;11197;53.110;8.468;2023-09-19T12:48:18;18.90;99.90
22065;DHT22;11197;53.110;8.468;2023-09-19T12:51:08;19.00;99.90
22065;DHT22;11197;53.110;8.468;2023-09-19T12:53:44;19.00;99.90
22065;DHT22;11197;53.110;8.468;2023-09-19T12:56:14;19.10;99.90
22065;DHT22;11197;53.110;8.468;2023-09-19T12:58:58;19.20;99.90
22065;DHT22;11197;53.110;8.468;2023-09-19T13:01:28;19.10;99.90
22065;DHT22;11197;53.110;8.468;2023-09-19T13:04:21;19.20;99.90
22065;DHT22;11197;53.110;8.468;2023-09-19T13:06:56;19.20;99.90
22065;DHT22;11197;53.110;8.468;2023-09-19T13:09:27;19.20;99.90
22065;DHT22;11197;53.110;8.468;2023-09-19T13:12:05;19.20;99.90
22065;DHT22;11197;53.110;8.468;2023-09-19T13:15:08;19.30;99.90
22065;DHT22;11197;53.110;8.468;2023-09-19T13:17:46;19.30;99.90
22065;DHT22;11197;53.110;8.468;2023-09-19T13:20:26;19.40;99.90
22065;DHT22;11197;53.110;8.468;2023-09-19T13:22:58;19.40;99.90
22065;DHT22;11197;53.110;8.468;2023-09-19T13:25:34;19.40;99.90
22065;DHT22;11197;53.110;8.468;2023-09-19T13:28:00;19.50;99.90
22065;DHT22;11197;53.110;8.468;2023-09-19T13:30:30;19.50;99.90
22065;DHT22;11197;53.110;8.468;2023-09-19T13:33:10;19.50;99.90
22065;DHT22;11197;53.110;8.468;2023-09-19T13:35:37;19.60;99.90
22065;DHT22;11197;53.110;8.468;2023-09-19T13:38:05;19.60;99.90
22065;DHT22;11197;53.110;8.468;2023-09-19T13:40:35;19.60;99.90
22065;DHT22;11197;53.110;8.468;2023-09-19T13:43:01;19.60;99.90
22065;DHT22;11197;53.110;8.468;2023-09-19T13:45:27;19.60;99.90
22065;DHT22;11197;53.110;8.468;2023-09-19T13:47:56;19.60;99.90
22065;DHT22;11197;53.110;8.468;2023-09-19T13:50:22;19.60;99.90
22065;DHT22;11197;53.110;8.468;2023-09-19T13:52:54;19.60;99.90
22065;DHT22;11197;53.110;8.468;2023-09-19T13:55:20;19.70;99.90
22065;DHT22;11197;53.110;8.468;2023-09-19T13:57:49;19.80;99.90
22065;DHT22;11197;53.110;8.468;2023-09-19T14:00:24;19.80;99.90
22065;DHT22;11197;53.110;8.468;2023-09-19T14:02:50;19.90;99.90
22065;DHT22;11197;53.110;8.468;2023-09-19T14:05:16;19.90;99.90
22065;DHT22;11197;53.110;8.468;2023-09-19T14:07:43;19.90;99.90
22065;DHT22;11197;53.110;8.468;2023-09-19T14:10:10;20.00;99.90
22065;DHT22;11197;53.110;8.468;2023-09-19T14:12:37;20.00;99.90
22065;DHT22;11197;53.110;8.468;2023-09-19T14:15:04;20.00;99.90
22065;DHT22;11197;53.110;8.468;2023-09-19T14:17:30;20.10;99.90
22065;DHT22;11197;53.110;8.468;2023-09-19T14:19:55;20.30;99.90
22065;DHT22;11197;53.110;8.468;2023-09-19T14:22:21;20.30;99.90
22065;DHT22;11197;53.110;8.468;2023-09-19T14:27:28;20.30;99.90
22065;DHT22;11197;53.110;8.468;2023-09-19T14:29:54;20.30;99.90
22065;DHT22;11197;53.110;8.468;2023-09-19T14:32:20;20.20;99.90
22065;DHT22;11197;53.110;8.468;2023-09-19T14:34:46;20.30;99.90
22065;DHT22;11197;53.110;8.468;2023-09-19T14:37:12;20.20;99.90
22065;DHT22;11197;53.110;8.468;2023-09-19T14:39:38;20.10;99.90
22065;DHT22;11197;53.110;8.468;2023-09-19T14:42:05;20.10;99.90
22065;DHT22;11197;53.110;8.468;2023-09-19T14:44:30;20.10;99.90
22065;DHT22;11197;53.110;8.468;2023-09-19T14:46:56;20.00;99.90
22065;DHT22;11197;53.110;8.468;2023-09-19T14:49:22;20.10;99.90
22065;DHT22;11197;53.110;8.468;2023-09-19T14:51:47;20.00;99.90
22065;DHT22;11197;53.110;8.468;2023-09-19T14:54:13;20.00;99.90
22065;DHT22;11197;53.110;8.468;2023-09-19T14:56:42;20.00;99.90
22065;DHT22;11197;53.110;8.468;2023-09-19T14:59:08;19.90;99.90
22065;DHT22;11197;53.110;8.468;2023-09-19T15:01:36;19.90;99.90
22065;DHT22;11197;53.110;8.468;2023-09-19T15:04:02;19.90;99.90
22065;DHT22;11197;53.110;8.468;2023-09-19T15:06:27;19.90;99.90
22065;DHT22;11197;53.110;8.468;2023-09-19T15:08:53;19.80;99.90
22065;DHT22;11197;53.110;8.468;2023-09-19T15:11:19;19.80;99.90
22065;DHT22;11197;53.110;8.468;2023-09-19T15:13:47;19.80;99.90
22065;DHT22;11197;53.110;8.468;2023-09-19T15:16:13;19.70;99.90
22065;DHT22;11197;53.110;8.468;2023-09-19T15:18:44;19.70;99.90
22065;DHT22;11197;53.110;8.468;2023-09-19T15:21:11;19.60;99.90
22065;DHT22;11197;53.110;8.468;2023-09-19T15:23:38;19.60;99.90
22065;DHT22;11197;53.110;8.468;2023-09-19T15:26:05;19.70;99.90
22065;DHT22;11197;53.110;8.468;2023-09-19T15:28:31;19.70;99.90
22065;DHT22;11197;53.110;8.468;2023-09-19T15:31:02;19.80;99.90
22065;DHT22;11197;53.110;8.468;2023-09-19T15:33:29;19.70;99.90
22065;DHT22;11197;53.110;8.468;2023-09-19T15:36:05;19.70;99.90
22065;DHT22;11197;53.110;8.468;2023-09-19T15:38:31;19.70;99.90
22065;DHT22;11197;53.110;8.468;2023-09-19T15:40:58;19.70;99.90
22065;DHT22;11197;53.110;8.468;2023-09-19T15:43:24;19.60;99.90
22065;DHT22;11197;53.110;8.468;2023-09-19T15:45:50;19.60;99.90
22065;DHT22;11197;53.110;8.468;2023-09-19T15:48:16;19.60;99.90
22065;DHT22;11197;53.110;8.468;2023-09-19T15:50:42;19.60;99.90
22065;DHT22;11197;53.110;8.468;2023-09-19T15:53:10;19.60;99.90
22065;DHT22;11197;53.110;8.468;2023-09-19T15:55:39;19.50;99.90
22065;DHT22;11197;53.110;8.468;2023-09-19T15:58:09;19.50;99.90
22065;DHT22;11197;53.110;8.468;2023-09-19T16:00:35;19.50;99.90
22065;DHT22;11197;53.110;8.468;2023-09-19T16:03:04;19.50;99.90
22065;DHT22;11197;53.110;8.468;2023-09-19T16:05:37;19.50;99.90
22065;DHT22;11197;53.110;8.468;2023-09-19T16:08:04;19.50;99.90
22065;DHT22;11197;53.110;8.468;2023-09-19T16:10:34;19.50;99.90
22065;DHT22;11197;53.110;8.468;2023-09-19T16:13:00;19.50;99.90
22065;DHT22;11197;53.110;8.468;2023-09-19T16:15:25;19.50;99.90
22065;DHT22;11197;53.110;8.468;2023-09-19T16:17:51;19.50;99.90
22065;DHT22;11197;53.110;8.468;2023-09-19T16:20:17;19.40;99.90
22065;DHT22;11197;53.110;8.468;2023-09-19T16:22:45;19.40;99.90
22065;DHT22;11197;53.110;8.468;2023-09-19T16:25:12;19.40;99.90
22065;DHT22;11197;53.110;8.468;2023-09-19T16:27:37;19.40;99.90
22065;DHT22;11197;53.110;8.468;2023-09-19T16:30:03;19.40;99.90
22065;DHT22;11197;53.110;8.468;2023-09-19T16:32:30;19.40;99.90
22065;DHT22;11197;53.110;8.468;2023-09-19T16:34:56;19.40;99.90
22065;DHT22;11197;53.110;8.468;2023-09-19T16:37:21;19.30;99.90
22065;DHT22;11197;53.110;8.468;2023-09-19T16:39:48;19.30;99.90
22065;DHT22;11197;53.110;8.468;2023-09-19T16:42:14;19.30;99.90
22065;DHT22;11197;53.110;8.468;2023-09-19T16:44:41;19.30;99.90
22065;DHT22;11197;53.110;8.468;2023-09-19T16:47:06;19.30;99.90
22065;DHT22;11197;53.110;8.468;2023-09-19T16:49:32;19.30;99.90
22065;DHT22;11197;53.110;8.468;2023-09-19T16:51:58;19.30;99.90
22065;DHT22;11197;53.110;8.468;2023-09-19T16:54:23;19.30;99.90
22065;DHT22;11197;53.110;8.468;2023-09-19T16:56:49;19.20;99.90